sensor_id;sensor_type;location;lat;lon;timestamp;temperature;humidity
12837;DHT22;6485;51.472;5.268;2022-08-11T00:01:13;19.80;1.00
12837;DHT22;6485;51.472;5.268;2022-08-11T00:03:47;19.80;1.00
12837;DHT22;6485;51.472;5.268;2022-08-11T00:06:23;19.80;1.00
12837;DHT22;6485;51.472;5.268;2022-08-11T00:08:53;19.80;1.00
12837;DHT22;6485;51.472;5.268;2022-08-11T00:11:31;19.80;1.00
12837;DHT22;6485;51.472;5.268;2022-08-11T00:14:00;19.80;1.00
12837;DHT22;6485;51.472;5.268;2022-08-11T00:16:32;19.80;1.00
12837;DHT22;6485;51.472;5.268;2022-08-11T00:19:00;19.80;1.00
12837;DHT22;6485;51.472;5.268;2022-08-11T00:21:29;19.80;1.00
12837;DHT22;6485;51.472;5.268;2022-08-11T00:24:19;19.80;1.00
12837;DHT22;6485;51.472;5.268;2022-08-11T00:26:50;19.70;1.00
12837;DHT22;6485;51.472;5.268;2022-08-11T00:29:19;19.60;1.00
12837;DHT22;6485;51.472;5.268;2022-08-11T00:31:52;19.60;1.00
12837;DHT22;6485;51.472;5.268;2022-08-11T00:34:24;19.60;1.00
12837;DHT22;6485;51.472;5.268;2022-08-11T00:36:57;19.60;1.00
12837;DHT22;6485;51.472;5.268;2022-08-11T00:39:27;19.60;1.00
12837;DHT22;6485;51.472;5.268;2022-08-11T00:42:10;19.60;1.00
12837;DHT22;6485;51.472;5.268;2022-08-11T00:44:59;19.60;1.00
12837;DHT22;6485;51.472;5.268;2022-08-11T00:47:47;19.50;1.00
12837;DHT22;6485;51.472;5.268;2022-08-11T00:50:25;19.50;1.00
12837;DHT22;6485;51.472;5.268;2022-08-11T00:53:04;19.50;1.00
12837;DHT22;6485;51.472;5.268;2022-08-11T00:56:03;19.50;1.00
12837;DHT22;6485;51.472;5.268;2022-08-11T00:59:15;19.50;1.00
12837;DHT22;6485;51.472;5.268;2022-08-11T01:02:12;19.40;1.00
12837;DHT22;6485;51.472;5.268;2022-08-11T01:05:15;19.40;1.00
12837;DHT22;6485;51.472;5.268;2022-08-11T01:08:18;19.40;1.00
12837;DHT22;6485;51.472;5.268;2022-08-11T01:11:01;19.30;1.00
12837;DHT22;6485;51.472;5.268;2022-08-11T01:13:50;19.20;1.00
12837;DHT22;6485;51.472;5.268;2022-08-11T01:16:55;19.20;1.00
12837;DHT22;6485;51.472;5.268;2022-08-11T01:19:55;19.20;1.00
12837;DHT22;6485;51.472;5.268;2022-08-11T01:23:24;19.20;1.00
12837;DHT22;6485;51.472;5.268;2022-08-11T01:26:46;19.10;22.10
12837;DHT22;6485;51.472;5.268;2022-08-11T01:32:43;18.90;99.90
12837;DHT22;6485;51.472;5.268;2022-08-11T01:35:33;18.80;99.90
12837;DHT22;6485;51.472;5.268;2022-08-11T01:41:28;18.80;99.90
12837;DHT22;6485;51.472;5.268;2022-08-11T01:44:27;18.70;99.90
12837;DHT22;6485;51.472;5.268;2022-08-11T01:47:23;18.70;99.90
12837;DHT22;6485;51.472;5.268;2022-08-11T01:50:33;18.60;99.90
12837;DHT22;6485;51.472;5.268;2022-08-11T01:53:15;18.60;99.90
12837;DHT22;6485;51.472;5.268;2022-08-11T01:55:51;18.60;99.90
12837;DHT22;6485;51.472;5.268;2022-08-11T01:58:29;18.50;99.90
12837;DHT22;6485;51.472;5.268;2022-08-11T02:01:21;18.50;99.90
12837;DHT22;6485;51.472;5.268;2022-08-11T02:03:55;18.50;99.90
12837;DHT22;6485;51.472;5.268;2022-08-11T02:06:32;18.50;99.90
12837;DHT22;6485;51.472;5.268;2022-08-11T02:09:42;18.50;99.90
12837;DHT22;6485;51.472;5.268;2022-08-11T02:15:26;18.40;99.90
12837;DHT22;6485;51.472;5.268;2022-08-11T02:18:04;18.40;99.90
12837;DHT22;6485;51.472;5.268;2022-08-11T02:20:47;18.50;99.90
12837;DHT22;6485;51.472;5.268;2022-08-11T02:23:50;18.50;99.90
12837;DHT22;6485;51.472;5.268;2022-08-11T02:26:37;18.50;99.90
12837;DHT22;6485;51.472;5.268;2022-08-11T02:29:14;18.40;99.90
12837;DHT22;6485;51.472;5.268;2022-08-11T02:31:52;18.40;99.90
12837;DHT22;6485;51.472;5.268;2022-08-11T02:35:00;18.20;99.90
12837;DHT22;6485;51.472;5.268;2022-08-11T02:37:39;18.20;99.90
12837;DHT22;6485;51.472;5.268;2022-08-11T02:40:21;18.20;99.90
12837;DHT22;6485;51.472;5.268;2022-08-11T02:43:04;18.10;1.00
12837;DHT22;6485;51.472;5.268;2022-08-11T02:45:46;18.10;1.00
12837;DHT22;6485;51.472;5.268;2022-08-11T02:48:28;18.10;1.00
12837;DHT22;6485;51.472;5.268;2022-08-11T02:51:26;18.00;1.00
12837;DHT22;6485;51.472;5.268;2022-08-11T02:54:04;18.00;1.00
12837;DHT22;6485;51.472;5.268;2022-08-11T02:56:45;18.00;1.00
12837;DHT22;6485;51.472;5.268;2022-08-11T02:59:34;18.00;1.00
12837;DHT22;6485;51.472;5.268;2022-08-11T03:02:46;17.90;1.00
12837;DHT22;6485;51.472;5.268;2022-08-11T03:05:25;17.90;1.00
12837;DHT22;6485;51.472;5.268;2022-08-11T03:08:13;17.90;1.00
12837;DHT22;6485;51.472;5.268;2022-08-11T03:10:53;17.80;1.00
12837;DHT22;6485;51.472;5.268;2022-08-11T03:13:56;17.80;1.00
12837;DHT22;6485;51.472;5.268;2022-08-11T03:16:50;17.80;1.00
12837;DHT22;6485;51.472;5.268;2022-08-11T03:19:25;17.80;1.00
12837;DHT22;6485;51.472;5.268;2022-08-11T03:22:07;17.80;1.00
12837;DHT22;6485;51.472;5.268;2022-08-11T03:24:45;17.70;1.00
12837;DHT22;6485;51.472;5.268;2022-08-11T03:27:27;17.70;1.00
12837;DHT22;6485;51.472;5.268;2022-08-11T03:30:05;17.70;1.00
12837;DHT22;6485;51.472;5.268;2022-08-11T03:32:40;17.70;1.00
12837;DHT22;6485;51.472;5.268;2022-08-11T03:35:09;17.60;1.00
12837;DHT22;6485;51.472;5.268;2022-08-11T03:37:51;17.60;1.00
12837;DHT22;6485;51.472;5.268;2022-08-11T03:40:42;17.60;1.00
12837;DHT22;6485;51.472;5.268;2022-08-11T03:44:02;17.60;1.00
12837;DHT22;6485;51.472;5.268;2022-08-11T03:46:55;17.50;1.00
12837;DHT22;6485;51.472;5.268;2022-08-11T03:49:33;17.50;1.00
12837;DHT22;6485;51.472;5.268;2022-08-11T03:52:12;17.50;1.00
12837;DHT22;6485;51.472;5.268;2022-08-11T03:54:49;17.40;1.00
12837;DHT22;6485;51.472;5.268;2022-08-11T04:01:04;17.40;1.00
12837;DHT22;6485;51.472;5.268;2022-08-11T04:04:04;17.30;99.90
12837;DHT22;6485;51.472;5.268;2022-08-11T04:22:04;17.10;1.00
12837;DHT22;6485;51.472;5.268;2022-08-11T04:24:53;17.10;1.00
12837;DHT22;6485;51.472;5.268;2022-08-11T04:31:17;17.00;1.00
12837;DHT22;6485;51.472;5.268;2022-08-11T04:34:35;17.00;90.90
12837;DHT22;6485;51.472;5.268;2022-08-11T04:37:32;17.00;99.90
12837;DHT22;6485;51.472;5.268;2022-08-11T04:40:17;17.00;27.00
12837;DHT22;6485;51.472;5.268;2022-08-11T04:43:21;17.00;99.90
12837;DHT22;6485;51.472;5.268;2022-08-11T04:46:19;17.00;19.00
12837;DHT22;6485;51.472;5.268;2022-08-11T04:49:05;17.00;33.90
12837;DHT22;6485;51.472;5.268;2022-08-11T04:58:51;17.10;1.00
12837;DHT22;6485;51.472;5.268;2022-08-11T05:01:54;17.10;1.00
12837;DHT22;6485;51.472;5.268;2022-08-11T05:04:56;17.10;1.00
12837;DHT22;6485;51.472;5.268;2022-08-11T05:11:02;17.20;1.00
12837;DHT22;6485;51.472;5.268;2022-08-11T05:13:41;17.20;1.00
12837;DHT22;6485;51.472;5.268;2022-08-11T05:16:34;17.30;1.00
12837;DHT22;6485;51.472;5.268;2022-08-11T05:19:25;17.40;1.00
12837;DHT22;6485;51.472;5.268;2022-08-11T05:22:12;17.50;1.00
12837;DHT22;6485;51.472;5.268;2022-08-11T05:25:06;17.60;1.00
12837;DHT22;6485;51.472;5.268;2022-08-11T05:28:15;17.70;99.90
12837;DHT22;6485;51.472;5.268;2022-08-11T05:31:05;17.80;99.90
12837;DHT22;6485;51.472;5.268;2022-08-11T05:33:56;17.90;99.90
12837;DHT22;6485;51.472;5.268;2022-08-11T05:36:46;18.00;41.20
12837;DHT22;6485;51.472;5.268;2022-08-11T05:39:16;18.00;61.40
12837;DHT22;6485;51.472;5.268;2022-08-11T05:42:06;18.10;16.50
12837;DHT22;6485;51.472;5.268;2022-08-11T05:45:11;18.20;1.00
12837;DHT22;6485;51.472;5.268;2022-08-11T05:48:17;18.30;1.00
12837;DHT22;6485;51.472;5.268;2022-08-11T05:51:04;18.40;1.00
12837;DHT22;6485;51.472;5.268;2022-08-11T05:53:58;18.50;1.00
12837;DHT22;6485;51.472;5.268;2022-08-11T05:56:56;18.60;1.00
12837;DHT22;6485;51.472;5.268;2022-08-11T05:59:27;18.70;1.00
12837;DHT22;6485;51.472;5.268;2022-08-11T06:02:00;18.80;1.00
12837;DHT22;6485;51.472;5.268;2022-08-11T06:04:29;19.00;1.00
12837;DHT22;6485;51.472;5.268;2022-08-11T06:07:00;19.10;1.00
12837;DHT22;6485;51.472;5.268;2022-08-11T06:09:32;19.20;1.00
12837;DHT22;6485;51.472;5.268;2022-08-11T06:12:03;19.20;1.00
12837;DHT22;6485;51.472;5.268;2022-08-11T06:14:34;19.30;99.90
12837;DHT22;6485;51.472;5.268;2022-08-11T06:17:08;19.40;99.90
12837;DHT22;6485;51.472;5.268;2022-08-11T06:19:38;19.50;99.90
12837;DHT22;6485;51.472;5.268;2022-08-11T06:22:10;19.60;99.90
12837;DHT22;6485;51.472;5.268;2022-08-11T06:24:40;19.70;99.90
12837;DHT22;6485;51.472;5.268;2022-08-11T06:27:18;19.80;99.90
12837;DHT22;6485;51.472;5.268;2022-08-11T06:29:49;19.90;99.90
12837;DHT22;6485;51.472;5.268;2022-08-11T06:32:23;20.00;99.90
12837;DHT22;6485;51.472;5.268;2022-08-11T06:35:02;20.10;99.90
12837;DHT22;6485;51.472;5.268;2022-08-11T06:37:39;20.30;76.70
12837;DHT22;6485;51.472;5.268;2022-08-11T06:40:20;20.40;64.00
12837;DHT22;6485;51.472;5.268;2022-08-11T06:42:53;20.50;49.80
12837;DHT22;6485;51.472;5.268;2022-08-11T06:45:30;20.60;44.80
12837;DHT22;6485;51.472;5.268;2022-08-11T06:48:00;20.70;81.10
12837;DHT22;6485;51.472;5.268;2022-08-11T06:50:29;20.80;11.30
12837;DHT22;6485;51.472;5.268;2022-08-11T06:53:17;20.90;1.00
12837;DHT22;6485;51.472;5.268;2022-08-11T06:55:48;21.00;1.00
12837;DHT22;6485;51.472;5.268;2022-08-11T06:58:37;21.10;1.00
12837;DHT22;6485;51.472;5.268;2022-08-11T07:01:35;21.30;1.00
12837;DHT22;6485;51.472;5.268;2022-08-11T07:04:22;21.40;1.00
12837;DHT22;6485;51.472;5.268;2022-08-11T07:07:13;21.50;1.00
12837;DHT22;6485;51.472;5.268;2022-08-11T07:13:27;21.80;1.00
12837;DHT22;6485;51.472;5.268;2022-08-11T07:16:18;21.90;1.00
12837;DHT22;6485;51.472;5.268;2022-08-11T07:18:56;22.00;1.00
12837;DHT22;6485;51.472;5.268;2022-08-11T07:21:45;22.20;1.00
12837;DHT22;6485;51.472;5.268;2022-08-11T07:24:35;22.30;1.00
12837;DHT22;6485;51.472;5.268;2022-08-11T07:27:31;22.50;1.00
12837;DHT22;6485;51.472;5.268;2022-08-11T07:30:20;22.70;1.00
12837;DHT22;6485;51.472;5.268;2022-08-11T07:32:53;22.80;1.00
12837;DHT22;6485;51.472;5.268;2022-08-11T07:35:31;23.00;1.00
12837;DHT22;6485;51.472;5.268;2022-08-11T07:38:02;23.20;1.00
12837;DHT22;6485;51.472;5.268;2022-08-11T07:40:34;23.40;1.00
12837;DHT22;6485;51.472;5.268;2022-08-11T07:43:03;23.50;1.00
12837;DHT22;6485;51.472;5.268;2022-08-11T07:45:33;23.60;1.00
12837;DHT22;6485;51.472;5.268;2022-08-11T07:48:19;23.70;1.00
12837;DHT22;6485;51.472;5.268;2022-08-11T07:51:06;23.80;1.00
12837;DHT22;6485;51.472;5.268;2022-08-11T07:53:52;23.90;1.00
12837;DHT22;6485;51.472;5.268;2022-08-11T07:56:40;24.00;1.00
12837;DHT22;6485;51.472;5.268;2022-08-11T07:59:28;24.10;1.00
12837;DHT22;6485;51.472;5.268;2022-08-11T08:02:30;24.30;1.00
12837;DHT22;6485;51.472;5.268;2022-08-11T08:05:16;24.40;1.00
12837;DHT22;6485;51.472;5.268;2022-08-11T08:08:06;24.50;1.00
12837;DHT22;6485;51.472;5.268;2022-08-11T08:10:54;24.60;1.00
12837;DHT22;6485;51.472;5.268;2022-08-11T08:13:41;24.60;1.00
12837;DHT22;6485;51.472;5.268;2022-08-11T08:16:28;24.70;1.00
12837;DHT22;6485;51.472;5.268;2022-08-11T08:19:16;24.80;1.00
12837;DHT22;6485;51.472;5.268;2022-08-11T08:21:47;25.00;1.00
12837;DHT22;6485;51.472;5.268;2022-08-11T08:24:17;25.00;1.00
12837;DHT22;6485;51.472;5.268;2022-08-11T08:26:47;25.00;1.00
12837;DHT22;6485;51.472;5.268;2022-08-11T08:29:27;25.20;1.00
12837;DHT22;6485;51.472;5.268;2022-08-11T08:32:15;25.30;1.00
12837;DHT22;6485;51.472;5.268;2022-08-11T08:34:44;25.30;1.00
12837;DHT22;6485;51.472;5.268;2022-08-11T08:37:13;25.50;1.00
12837;DHT22;6485;51.472;5.268;2022-08-11T08:40:08;25.50;99.90
12837;DHT22;6485;51.472;5.268;2022-08-11T08:42:39;25.50;99.90
12837;DHT22;6485;51.472;5.268;2022-08-11T08:45:13;25.60;99.90
12837;DHT22;6485;51.472;5.268;2022-08-11T08:47:50;25.80;99.90
12837;DHT22;6485;51.472;5.268;2022-08-11T08:50:21;25.80;99.90
12837;DHT22;6485;51.472;5.268;2022-08-11T08:53:13;25.90;99.90
12837;DHT22;6485;51.472;5.268;2022-08-11T08:55:45;26.10;99.90
12837;DHT22;6485;51.472;5.268;2022-08-11T08:58:15;26.20;99.90
12837;DHT22;6485;51.472;5.268;2022-08-11T09:00:45;26.20;99.90
12837;DHT22;6485;51.472;5.268;2022-08-11T09:03:13;26.20;99.90
12837;DHT22;6485;51.472;5.268;2022-08-11T09:06:01;26.30;99.90
12837;DHT22;6485;51.472;5.268;2022-08-11T09:08:30;26.50;99.90
12837;DHT22;6485;51.472;5.268;2022-08-11T09:11:01;26.50;99.90
12837;DHT22;6485;51.472;5.268;2022-08-11T09:13:47;26.60;99.90
12837;DHT22;6485;51.472;5.268;2022-08-11T09:16:33;26.70;99.90
12837;DHT22;6485;51.472;5.268;2022-08-11T09:19:03;26.70;99.90
12837;DHT22;6485;51.472;5.268;2022-08-11T09:21:31;26.70;99.90
12837;DHT22;6485;51.472;5.268;2022-08-11T09:24:14;26.80;99.90
12837;DHT22;6485;51.472;5.268;2022-08-11T09:27:05;26.90;99.90
12837;DHT22;6485;51.472;5.268;2022-08-11T09:29:34;27.00;99.90
12837;DHT22;6485;51.472;5.268;2022-08-11T09:32:05;27.00;99.90
12837;DHT22;6485;51.472;5.268;2022-08-11T09:34:36;27.00;99.90
12837;DHT22;6485;51.472;5.268;2022-08-11T09:37:05;27.10;99.90
12837;DHT22;6485;51.472;5.268;2022-08-11T09:40:14;27.10;99.90
12837;DHT22;6485;51.472;5.268;2022-08-11T09:43:04;27.00;99.90
12837;DHT22;6485;51.472;5.268;2022-08-11T09:45:51;27.00;99.90
12837;DHT22;6485;51.472;5.268;2022-08-11T09:48:22;27.10;99.90
12837;DHT22;6485;51.472;5.268;2022-08-11T09:50:54;27.20;99.90
12837;DHT22;6485;51.472;5.268;2022-08-11T09:53:26;27.30;99.90
12837;DHT22;6485;51.472;5.268;2022-08-11T09:56:03;27.40;99.90
12837;DHT22;6485;51.472;5.268;2022-08-11T09:58:53;27.40;99.90
12837;DHT22;6485;51.472;5.268;2022-08-11T10:01:22;27.30;99.90
12837;DHT22;6485;51.472;5.268;2022-08-11T10:03:57;27.50;99.90
12837;DHT22;6485;51.472;5.268;2022-08-11T10:06:28;27.50;99.90
12837;DHT22;6485;51.472;5.268;2022-08-11T10:09:22;27.50;99.90
12837;DHT22;6485;51.472;5.268;2022-08-11T10:11:53;27.40;99.90
12837;DHT22;6485;51.472;5.268;2022-08-11T10:14:26;27.50;99.90
12837;DHT22;6485;51.472;5.268;2022-08-11T10:17:15;27.60;99.90
12837;DHT22;6485;51.472;5.268;2022-08-11T10:19:46;27.70;99.90
12837;DHT22;6485;51.472;5.268;2022-08-11T10:22:32;27.70;99.90
12837;DHT22;6485;51.472;5.268;2022-08-11T10:25:19;27.70;99.90
12837;DHT22;6485;51.472;5.268;2022-08-11T10:28:07;27.80;99.90
12837;DHT22;6485;51.472;5.268;2022-08-11T10:30:59;27.90;99.90
12837;DHT22;6485;51.472;5.268;2022-08-11T10:33:45;28.00;99.90
12837;DHT22;6485;51.472;5.268;2022-08-11T10:36:31;28.10;99.90
12837;DHT22;6485;51.472;5.268;2022-08-11T10:39:02;28.20;99.90
12837;DHT22;6485;51.472;5.268;2022-08-11T10:41:30;28.30;99.90
12837;DHT22;6485;51.472;5.268;2022-08-11T10:44:38;28.30;99.90
12837;DHT22;6485;51.472;5.268;2022-08-11T10:47:11;28.30;99.90
12837;DHT22;6485;51.472;5.268;2022-08-11T10:49:57;28.40;99.90
12837;DHT22;6485;51.472;5.268;2022-08-11T10:52:46;28.40;99.90
12837;DHT22;6485;51.472;5.268;2022-08-11T10:55:32;28.50;99.90
12837;DHT22;6485;51.472;5.268;2022-08-11T10:58:18;28.50;99.90
12837;DHT22;6485;51.472;5.268;2022-08-11T11:01:04;28.50;99.90
12837;DHT22;6485;51.472;5.268;2022-08-11T11:03:35;28.60;99.90
12837;DHT22;6485;51.472;5.268;2022-08-11T11:06:11;28.60;99.90
12837;DHT22;6485;51.472;5.268;2022-08-11T11:09:02;28.70;99.90
12837;DHT22;6485;51.472;5.268;2022-08-11T11:11:36;28.70;99.90
12837;DHT22;6485;51.472;5.268;2022-08-11T11:14:25;28.80;99.90
12837;DHT22;6485;51.472;5.268;2022-08-11T11:17:25;28.90;99.90
12837;DHT22;6485;51.472;5.268;2022-08-11T11:20:16;29.00;99.90
12837;DHT22;6485;51.472;5.268;2022-08-11T11:23:13;29.10;99.90
12837;DHT22;6485;51.472;5.268;2022-08-11T11:25:57;29.10;99.90
12837;DHT22;6485;51.472;5.268;2022-08-11T11:29:25;29.00;99.90
12837;DHT22;6485;51.472;5.268;2022-08-11T11:32:10;29.10;99.90
12837;DHT22;6485;51.472;5.268;2022-08-11T11:35:10;29.10;99.90
12837;DHT22;6485;51.472;5.268;2022-08-11T11:37:44;29.00;99.90
12837;DHT22;6485;51.472;5.268;2022-08-11T11:40:31;28.90;99.90
12837;DHT22;6485;51.472;5.268;2022-08-11T11:42:59;29.20;99.90
12837;DHT22;6485;51.472;5.268;2022-08-11T11:45:28;29.20;99.90
12837;DHT22;6485;51.472;5.268;2022-08-11T11:47:58;29.40;99.90
12837;DHT22;6485;51.472;5.268;2022-08-11T11:50:29;29.40;99.90
12837;DHT22;6485;51.472;5.268;2022-08-11T11:53:02;29.30;99.90
12837;DHT22;6485;51.472;5.268;2022-08-11T11:55:31;29.20;99.90
12837;DHT22;6485;51.472;5.268;2022-08-11T11:58:01;29.20;99.90
12837;DHT22;6485;51.472;5.268;2022-08-11T12:00:48;29.20;99.90
12837;DHT22;6485;51.472;5.268;2022-08-11T12:03:32;29.40;99.90
12837;DHT22;6485;51.472;5.268;2022-08-11T12:06:02;29.50;99.90
12837;DHT22;6485;51.472;5.268;2022-08-11T12:08:32;29.60;99.90
12837;DHT22;6485;51.472;5.268;2022-08-11T12:11:02;29.70;99.90
12837;DHT22;6485;51.472;5.268;2022-08-11T12:13:50;29.60;99.90
12837;DHT22;6485;51.472;5.268;2022-08-11T12:16:21;29.30;99.90
12837;DHT22;6485;51.472;5.268;2022-08-11T12:19:04;29.30;99.90
12837;DHT22;6485;51.472;5.268;2022-08-11T12:21:34;29.50;99.90
12837;DHT22;6485;51.472;5.268;2022-08-11T12:24:05;29.50;99.90
12837;DHT22;6485;51.472;5.268;2022-08-11T12:26:55;29.50;99.90
12837;DHT22;6485;51.472;5.268;2022-08-11T12:29:55;29.60;99.90
12837;DHT22;6485;51.472;5.268;2022-08-11T12:32:27;29.60;99.90
12837;DHT22;6485;51.472;5.268;2022-08-11T12:34:55;29.80;99.90
12837;DHT22;6485;51.472;5.268;2022-08-11T12:37:27;29.70;99.90
12837;DHT22;6485;51.472;5.268;2022-08-11T12:40:00;29.70;99.90
12837;DHT22;6485;51.472;5.268;2022-08-11T12:43:10;29.70;99.90
12837;DHT22;6485;51.472;5.268;2022-08-11T12:46:07;29.70;99.90
12837;DHT22;6485;51.472;5.268;2022-08-11T12:48:42;29.70;99.90
12837;DHT22;6485;51.472;5.268;2022-08-11T12:51:32;29.80;99.90
12837;DHT22;6485;51.472;5.268;2022-08-11T12:54:47;29.80;99.90
12837;DHT22;6485;51.472;5.268;2022-08-11T12:57:35;29.80;99.90
12837;DHT22;6485;51.472;5.268;2022-08-11T13:00:23;29.80;99.90
12837;DHT22;6485;51.472;5.268;2022-08-11T13:03:10;29.70;99.90
12837;DHT22;6485;51.472;5.268;2022-08-11T13:06:00;29.80;99.90
12837;DHT22;6485;51.472;5.268;2022-08-11T13:08:33;29.70;99.90
12837;DHT22;6485;51.472;5.268;2022-08-11T13:11:02;29.80;99.90
12837;DHT22;6485;51.472;5.268;2022-08-11T13:13:50;29.90;99.90
12837;DHT22;6485;51.472;5.268;2022-08-11T13:16:26;29.90;99.90
12837;DHT22;6485;51.472;5.268;2022-08-11T13:18:56;29.80;99.90
12837;DHT22;6485;51.472;5.268;2022-08-11T13:21:28;29.90;99.90
12837;DHT22;6485;51.472;5.268;2022-08-11T13:23:57;29.90;99.90
12837;DHT22;6485;51.472;5.268;2022-08-11T13:26:31;29.90;99.90
12837;DHT22;6485;51.472;5.268;2022-08-11T13:29:24;29.80;99.90
12837;DHT22;6485;51.472;5.268;2022-08-11T13:31:55;29.90;99.90
12837;DHT22;6485;51.472;5.268;2022-08-11T13:34:25;29.90;99.90
12837;DHT22;6485;51.472;5.268;2022-08-11T13:36:55;29.80;99.90
12837;DHT22;6485;51.472;5.268;2022-08-11T13:39:26;29.60;99.90
12837;DHT22;6485;51.472;5.268;2022-08-11T13:41:57;29.70;99.90
12837;DHT22;6485;51.472;5.268;2022-08-11T13:44:29;29.80;99.90
12837;DHT22;6485;51.472;5.268;2022-08-11T13:47:00;29.90;99.90
12837;DHT22;6485;51.472;5.268;2022-08-11T13:49:30;30.00;99.90
12837;DHT22;6485;51.472;5.268;2022-08-11T13:51:59;30.00;99.90
12837;DHT22;6485;51.472;5.268;2022-08-11T13:54:30;30.00;99.90
12837;DHT22;6485;51.472;5.268;2022-08-11T13:57:02;30.00;99.90
12837;DHT22;6485;51.472;5.268;2022-08-11T13:59:36;30.10;99.90
12837;DHT22;6485;51.472;5.268;2022-08-11T14:02:22;30.20;99.90
12837;DHT22;6485;51.472;5.268;2022-08-11T14:04:57;30.00;99.90
12837;DHT22;6485;51.472;5.268;2022-08-11T14:07:33;30.00;99.90
12837;DHT22;6485;51.472;5.268;2022-08-11T14:10:03;30.00;99.90
12837;DHT22;6485;51.472;5.268;2022-08-11T14:12:34;29.80;99.90
12837;DHT22;6485;51.472;5.268;2022-08-11T14:15:26;29.90;99.90
12837;DHT22;6485;51.472;5.268;2022-08-11T14:17:58;30.00;99.90
12837;DHT22;6485;51.472;5.268;2022-08-11T14:20:33;30.00;99.90
12837;DHT22;6485;51.472;5.268;2022-08-11T14:23:16;29.90;99.90
12837;DHT22;6485;51.472;5.268;2022-08-11T14:25:44;29.80;99.90
12837;DHT22;6485;51.472;5.268;2022-08-11T14:28:29;29.70;99.90
12837;DHT22;6485;51.472;5.268;2022-08-11T14:31:07;29.80;99.90
12837;DHT22;6485;51.472;5.268;2022-08-11T14:33:36;29.80;99.90
12837;DHT22;6485;51.472;5.268;2022-08-11T14:36:26;29.90;99.90
12837;DHT22;6485;51.472;5.268;2022-08-11T14:38:55;29.90;99.90
12837;DHT22;6485;51.472;5.268;2022-08-11T14:41:24;29.90;99.90
12837;DHT22;6485;51.472;5.268;2022-08-11T14:44:27;30.00;99.90
12837;DHT22;6485;51.472;5.268;2022-08-11T14:47:17;29.90;99.90
12837;DHT22;6485;51.472;5.268;2022-08-11T14:49:53;30.00;99.90
12837;DHT22;6485;51.472;5.268;2022-08-11T14:52:38;29.90;99.90
12837;DHT22;6485;51.472;5.268;2022-08-11T14:55:08;29.90;99.90
12837;DHT22;6485;51.472;5.268;2022-08-11T14:57:55;30.00;99.90
12837;DHT22;6485;51.472;5.268;2022-08-11T15:00:24;30.10;99.90
12837;DHT22;6485;51.472;5.268;2022-08-11T15:02:54;30.10;99.90
12837;DHT22;6485;51.472;5.268;2022-08-11T15:05:46;30.10;99.90
12837;DHT22;6485;51.472;5.268;2022-08-11T15:08:26;30.00;99.90
12837;DHT22;6485;51.472;5.268;2022-08-11T15:11:14;30.00;99.90
12837;DHT22;6485;51.472;5.268;2022-08-11T15:14:03;30.00;99.90
12837;DHT22;6485;51.472;5.268;2022-08-11T15:16:32;30.00;99.90
12837;DHT22;6485;51.472;5.268;2022-08-11T15:19:20;30.00;99.90
12837;DHT22;6485;51.472;5.268;2022-08-11T15:21:49;30.00;99.90
12837;DHT22;6485;51.472;5.268;2022-08-11T15:24:35;29.90;99.90
12837;DHT22;6485;51.472;5.268;2022-08-11T15:27:08;30.00;99.90
12837;DHT22;6485;51.472;5.268;2022-08-11T15:29:57;30.00;99.90
12837;DHT22;6485;51.472;5.268;2022-08-11T15:33:03;30.10;99.90
12837;DHT22;6485;51.472;5.268;2022-08-11T15:35:52;30.20;99.90
12837;DHT22;6485;51.472;5.268;2022-08-11T15:38:41;30.10;99.90
12837;DHT22;6485;51.472;5.268;2022-08-11T15:41:14;30.10;99.90
12837;DHT22;6485;51.472;5.268;2022-08-11T15:44:05;30.10;99.90
12837;DHT22;6485;51.472;5.268;2022-08-11T15:47:13;30.00;99.90
12837;DHT22;6485;51.472;5.268;2022-08-11T15:49:43;30.10;99.90
12837;DHT22;6485;51.472;5.268;2022-08-11T15:52:43;30.10;99.90
12837;DHT22;6485;51.472;5.268;2022-08-11T15:55:13;30.10;99.90
12837;DHT22;6485;51.472;5.268;2022-08-11T15:57:44;30.20;99.90
12837;DHT22;6485;51.472;5.268;2022-08-11T16:00:32;30.10;99.90
12837;DHT22;6485;51.472;5.268;2022-08-11T16:03:31;30.10;99.90
12837;DHT22;6485;51.472;5.268;2022-08-11T16:06:36;30.10;99.90
12837;DHT22;6485;51.472;5.268;2022-08-11T16:09:19;30.00;99.90
12837;DHT22;6485;51.472;5.268;2022-08-11T16:11:50;30.00;99.90
12837;DHT22;6485;51.472;5.268;2022-08-11T16:14:22;30.00;99.90
12837;DHT22;6485;51.472;5.268;2022-08-11T16:17:10;29.90;99.90
12837;DHT22;6485;51.472;5.268;2022-08-11T16:19:42;29.90;99.90
12837;DHT22;6485;51.472;5.268;2022-08-11T16:22:11;29.80;99.90
12837;DHT22;6485;51.472;5.268;2022-08-11T16:24:44;29.80;99.90
12837;DHT22;6485;51.472;5.268;2022-08-11T16:27:36;29.80;99.90
12837;DHT22;6485;51.472;5.268;2022-08-11T16:30:07;29.80;99.90
12837;DHT22;6485;51.472;5.268;2022-08-11T16:32:38;29.80;99.90
12837;DHT22;6485;51.472;5.268;2022-08-11T16:35:10;29.70;99.90
12837;DHT22;6485;51.472;5.268;2022-08-11T16:37:56;29.80;99.90
12837;DHT22;6485;51.472;5.268;2022-08-11T16:40:46;29.90;99.90
12837;DHT22;6485;51.472;5.268;2022-08-11T16:43:20;29.90;99.90
12837;DHT22;6485;51.472;5.268;2022-08-11T16:46:07;29.80;99.90
12837;DHT22;6485;51.472;5.268;2022-08-11T16:48:59;30.00;99.90
12837;DHT22;6485;51.472;5.268;2022-08-11T16:51:30;30.00;99.90
12837;DHT22;6485;51.472;5.268;2022-08-11T16:53:58;30.00;99.90
12837;DHT22;6485;51.472;5.268;2022-08-11T16:56:35;29.90;99.90
12837;DHT22;6485;51.472;5.268;2022-08-11T16:59:08;29.90;99.90
12837;DHT22;6485;51.472;5.268;2022-08-11T17:01:51;29.80;99.90
12837;DHT22;6485;51.472;5.268;2022-08-11T17:04:29;29.80;99.90
12837;DHT22;6485;51.472;5.268;2022-08-11T17:07:16;29.70;99.90
12837;DHT22;6485;51.472;5.268;2022-08-11T17:10:25;29.80;99.90
12837;DHT22;6485;51.472;5.268;2022-08-11T17:13:27;29.70;99.90
12837;DHT22;6485;51.472;5.268;2022-08-11T17:15:59;29.70;99.90
12837;DHT22;6485;51.472;5.268;2022-08-11T17:18:39;29.60;99.90
12837;DHT22;6485;51.472;5.268;2022-08-11T17:21:19;29.70;99.90
12837;DHT22;6485;51.472;5.268;2022-08-11T17:23:52;29.70;99.90
12837;DHT22;6485;51.472;5.268;2022-08-11T17:26:25;29.60;99.90
12837;DHT22;6485;51.472;5.268;2022-08-11T17:29:16;29.50;99.90
12837;DHT22;6485;51.472;5.268;2022-08-11T17:31:46;29.50;99.90
12837;DHT22;6485;51.472;5.268;2022-08-11T17:34:32;29.40;99.90
12837;DHT22;6485;51.472;5.268;2022-08-11T17:37:19;29.40;99.90
12837;DHT22;6485;51.472;5.268;2022-08-11T17:39:49;29.30;99.90
12837;DHT22;6485;51.472;5.268;2022-08-11T17:42:18;29.30;99.90
12837;DHT22;6485;51.472;5.268;2022-08-11T17:45:08;29.30;99.90
12837;DHT22;6485;51.472;5.268;2022-08-11T17:47:55;29.20;99.90
12837;DHT22;6485;51.472;5.268;2022-08-11T17:50:42;29.20;99.90
12837;DHT22;6485;51.472;5.268;2022-08-11T17:53:12;29.10;99.90
12837;DHT22;6485;51.472;5.268;2022-08-11T17:55:59;29.00;99.90
12837;DHT22;6485;51.472;5.268;2022-08-11T17:58:46;29.00;99.90
12837;DHT22;6485;51.472;5.268;2022-08-11T18:01:46;28.90;99.90
12837;DHT22;6485;51.472;5.268;2022-08-11T18:04:20;28.90;99.90
12837;DHT22;6485;51.472;5.268;2022-08-11T18:06:49;28.80;99.90
